createdAt,value
2017-10-15T00:00:22.479Z,8.10
2017-10-15T00:02:50.062Z,8.77
2017-10-15T00:05:17.590Z,8.40
2017-10-15T00:07:45.127Z,9.20
2017-10-15T00:10:12.686Z,9.23
2017-10-15T00:12:40.283Z,8.67
2017-10-15T00:15:07.806Z,8.57
2017-10-15T00:17:35.382Z,8.43
2017-10-15T00:20:02.910Z,8.20
2017-10-15T00:22:30.449Z,9.70
2017-10-15T00:24:58.014Z,9.60
2017-10-15T00:27:25.538Z,9.60
2017-10-15T00:29:53.877Z,8.53
2017-10-15T00:32:21.406Z,10.80
2017-10-15T00:34:48.976Z,9.17
2017-10-15T00:37:17.319Z,9.40
2017-10-15T00:39:44.849Z,8.03
2017-10-15T00:42:12.375Z,8.17
2017-10-15T00:44:39.938Z,7.90
2017-10-15T00:47:07.471Z,9.60
2017-10-15T00:49:35.038Z,8.20
2017-10-15T00:52:02.599Z,8.90
2017-10-15T00:54:30.950Z,8.80
2017-10-15T00:56:58.477Z,8.23
2017-10-15T00:59:26.002Z,7.50
2017-10-15T01:01:53.587Z,6.60
2017-10-15T01:04:21.892Z,7.87
2017-10-15T01:06:49.423Z,7.20
2017-10-15T01:09:16.981Z,8.90
2017-10-15T01:11:44.550Z,8.40
2017-10-15T01:14:12.081Z,8.40
2017-10-15T01:16:39.606Z,8.10
2017-10-15T01:19:07.170Z,7.90
2017-10-15T01:21:34.703Z,8.60
2017-10-15T01:24:02.241Z,9.40
2017-10-15T01:26:29.808Z,8.63
2017-10-15T01:28:57.334Z,10.17
2017-10-15T01:31:24.891Z,8.73
2017-10-15T01:33:52.443Z,9.00
2017-10-15T01:36:19.998Z,8.03
2017-10-15T01:38:47.527Z,7.93
2017-10-15T01:41:15.050Z,7.87
2017-10-15T01:43:42.616Z,9.00
2017-10-15T01:46:10.146Z,8.40
2017-10-15T01:48:37.703Z,8.13
2017-10-15T01:51:05.266Z,7.97
2017-10-15T01:53:32.794Z,6.70
2017-10-15T01:56:00.321Z,7.40
2017-10-15T01:58:27.889Z,6.63
2017-10-15T02:00:55.414Z,7.50
2017-10-15T02:03:22.947Z,8.93
2017-10-15T02:05:50.507Z,7.97
2017-10-15T02:08:18.046Z,7.90
2017-10-15T02:10:45.602Z,8.20
2017-10-15T02:13:13.178Z,7.43
2017-10-15T02:15:40.750Z,8.03
2017-10-15T02:18:08.278Z,8.83
2017-10-15T02:20:36.567Z,8.00
2017-10-15T02:23:04.152Z,8.70
2017-10-15T02:25:31.687Z,8.80
2017-10-15T02:27:59.246Z,8.30
2017-10-15T02:30:26.773Z,9.27
2017-10-15T02:32:54.342Z,7.20
2017-10-15T02:35:21.874Z,7.60
2017-10-15T02:37:49.400Z,6.60
2017-10-15T02:40:16.953Z,7.63
2017-10-15T02:42:44.513Z,7.90
2017-10-15T02:45:12.046Z,7.63
2017-10-15T02:47:39.610Z,9.83
2017-10-15T02:50:07.138Z,9.50
2017-10-15T02:52:34.698Z,9.70
2017-10-15T02:55:02.256Z,9.60
2017-10-15T02:57:30.575Z,9.70
2017-10-15T02:59:58.102Z,9.40
2017-10-15T03:02:25.667Z,11.00
2017-10-15T03:04:53.230Z,9.70
2017-10-15T03:07:20.758Z,9.80
2017-10-15T03:09:48.321Z,9.57
2017-10-15T03:12:15.864Z,11.10
2017-10-15T03:14:43.429Z,10.37
2017-10-15T03:17:11.715Z,9.70
2017-10-15T03:19:39.253Z,8.87
2017-10-15T03:22:06.817Z,11.37
2017-10-15T03:24:34.342Z,9.10
2017-10-15T03:27:01.898Z,9.20
2017-10-15T03:29:29.422Z,9.40
2017-10-15T03:31:57.033Z,9.40
2017-10-15T03:34:24.561Z,8.83
2017-10-15T03:36:52.138Z,9.17
2017-10-15T03:39:20.438Z,9.67
2017-10-15T03:41:47.963Z,8.60
2017-10-15T03:44:15.527Z,9.00
2017-10-15T03:46:43.055Z,8.13
2017-10-15T03:49:10.621Z,8.40
2017-10-15T03:51:38.142Z,8.93
2017-10-15T03:54:05.696Z,9.30
2017-10-15T03:56:33.222Z,8.63
2017-10-15T03:59:01.558Z,9.90
2017-10-15T04:01:29.095Z,9.73
2017-10-15T04:03:56.629Z,8.80
2017-10-15T04:06:24.209Z,8.97
2017-10-15T04:08:52.507Z,9.50
2017-10-15T04:11:20.042Z,9.20
2017-10-15T04:13:47.614Z,9.67
2017-10-15T04:16:15.186Z,10.03
2017-10-15T04:18:42.719Z,9.53
2017-10-15T04:21:10.246Z,9.20
2017-10-15T04:23:37.805Z,8.77
2017-10-15T04:26:05.343Z,9.53
2017-10-15T04:28:32.902Z,9.30
2017-10-15T04:31:00.430Z,9.37
2017-10-15T04:33:28.002Z,8.90
2017-10-15T04:35:55.527Z,8.87
2017-10-15T04:38:23.056Z,9.03
2017-10-15T04:40:50.627Z,9.03
2017-10-15T04:43:18.150Z,7.43
2017-10-15T04:45:45.680Z,8.77
2017-10-15T04:48:13.255Z,8.20
2017-10-15T04:50:40.783Z,8.30
2017-10-15T04:53:08.315Z,6.73
2017-10-15T04:55:36.681Z,7.50
2017-10-15T04:58:04.235Z,7.20
2017-10-15T05:00:31.763Z,6.90
2017-10-15T05:03:00.083Z,7.20
2017-10-15T05:05:28.398Z,6.70
2017-10-15T05:07:55.975Z,7.87
2017-10-15T05:10:23.500Z,7.17
2017-10-15T05:12:51.021Z,6.53
2017-10-15T05:15:18.582Z,7.20
2017-10-15T05:17:46.106Z,7.50
2017-10-15T05:20:13.633Z,6.73
2017-10-15T05:22:41.192Z,6.80
2017-10-15T05:25:09.488Z,6.73
2017-10-15T05:27:37.059Z,6.43
2017-10-15T05:30:05.352Z,6.13
2017-10-15T05:32:32.870Z,6.07
2017-10-15T05:35:00.499Z,6.73
2017-10-15T05:37:28.830Z,7.37
2017-10-15T05:39:56.359Z,7.77
2017-10-15T05:42:23.884Z,7.20
2017-10-15T05:44:51.463Z,8.27
2017-10-15T05:47:18.991Z,6.10
2017-10-15T05:49:46.555Z,6.70
2017-10-15T05:52:14.079Z,6.70
2017-10-15T05:54:41.694Z,7.17
2017-10-15T05:57:09.265Z,6.83
2017-10-15T05:59:36.790Z,6.50
2017-10-15T06:02:04.314Z,7.33
2017-10-15T06:04:32.656Z,5.47
2017-10-15T06:07:00.181Z,5.97
2017-10-15T06:09:27.734Z,7.50
2017-10-15T06:11:55.266Z,7.90
2017-10-15T06:14:22.838Z,5.80
2017-10-15T06:16:51.130Z,7.20
2017-10-15T06:19:18.657Z,6.60
2017-10-15T06:21:46.214Z,6.43
2017-10-15T06:24:13.749Z,6.63
2017-10-15T06:26:41.311Z,6.27
2017-10-15T06:29:08.871Z,6.30
2017-10-15T06:31:36.403Z,6.73
2017-10-15T06:34:03.968Z,7.50
2017-10-15T06:36:31.537Z,6.50
2017-10-15T06:38:59.113Z,6.30
2017-10-15T06:41:26.641Z,7.13
2017-10-15T06:43:54.187Z,7.13
2017-10-15T06:46:22.507Z,7.00
2017-10-15T06:48:50.034Z,6.67
2017-10-15T06:51:17.654Z,6.90
2017-10-15T06:53:45.182Z,8.67
2017-10-15T06:56:13.524Z,6.30
2017-10-15T06:58:41.058Z,6.90
2017-10-15T07:01:08.582Z,8.03
2017-10-15T07:03:36.133Z,7.77
2017-10-15T07:06:03.661Z,8.67
2017-10-15T07:08:31.230Z,9.20
2017-10-15T07:10:59.522Z,7.70
2017-10-15T07:13:27.846Z,8.10
2017-10-15T07:15:55.378Z,7.57
2017-10-15T07:18:22.939Z,8.90
2017-10-15T07:20:50.471Z,7.70
2017-10-15T07:23:18.063Z,8.30
2017-10-15T07:25:46.362Z,8.40
2017-10-15T07:28:13.902Z,8.50
2017-10-15T07:30:41.486Z,10.80
2017-10-15T07:33:09.018Z,10.50
2017-10-15T07:35:36.586Z,12.20
2017-10-15T07:38:04.155Z,11.30
2017-10-15T07:40:31.712Z,11.17
2017-10-15T07:42:59.298Z,12.47
2017-10-15T07:45:26.839Z,13.20
2017-10-15T07:47:54.366Z,11.20
2017-10-15T07:50:21.930Z,11.80
2017-10-15T07:52:49.467Z,13.00
2017-10-15T07:55:17.035Z,14.07
2017-10-15T07:57:44.570Z,12.63
2017-10-15T08:00:12.141Z,14.13
2017-10-15T08:02:39.702Z,13.50
2017-10-15T08:05:08.025Z,13.63
2017-10-15T08:07:35.586Z,13.60
2017-10-15T08:10:03.114Z,14.80
2017-10-15T08:12:30.690Z,12.73
2017-10-15T08:14:59.022Z,13.40
2017-10-15T08:17:26.564Z,12.20
2017-10-15T08:19:54.138Z,13.07
2017-10-15T08:22:22.430Z,12.40
2017-10-15T08:24:49.973Z,12.90
2017-10-15T08:27:17.553Z,12.60
2017-10-15T08:29:45.083Z,12.10
2017-10-15T08:32:12.675Z,11.03
2017-10-15T08:34:40.987Z,11.50
2017-10-15T08:37:08.550Z,8.23
2017-10-15T08:39:36.106Z,10.27
2017-10-15T08:42:03.699Z,9.97
2017-10-15T08:44:31.237Z,6.67
2017-10-15T08:46:58.824Z,7.10
2017-10-15T08:49:26.456Z,8.10
2017-10-15T08:51:54.798Z,9.30
2017-10-15T08:54:22.595Z,8.50
2017-10-15T08:56:50.960Z,8.00
2017-10-15T08:59:18.494Z,7.33
2017-10-15T09:01:46.069Z,8.60
2017-10-15T09:04:14.407Z,7.50
2017-10-15T09:06:41.963Z,7.77
2017-10-15T09:09:09.543Z,6.87
2017-10-15T09:11:37.073Z,6.20
2017-10-15T09:14:05.358Z,6.00
2017-10-15T09:16:32.928Z,5.50
2017-10-15T09:19:00.446Z,5.80
2017-10-15T09:21:27.980Z,5.87
2017-10-15T09:23:55.560Z,5.73
2017-10-15T09:26:23.087Z,5.17
2017-10-15T09:28:50.652Z,6.57
2017-10-15T09:31:18.195Z,5.80
2017-10-15T09:33:45.766Z,5.30
2017-10-15T09:36:13.291Z,5.40
2017-10-15T09:38:40.849Z,5.37
2017-10-15T09:41:08.370Z,5.00
2017-10-15T09:43:35.948Z,5.20
2017-10-15T09:46:04.260Z,5.83
2017-10-15T09:48:31.818Z,5.40
2017-10-15T09:50:59.377Z,5.13
2017-10-15T09:53:26.914Z,5.30
2017-10-15T09:55:54.471Z,5.10
2017-10-15T09:58:21.994Z,5.90
2017-10-15T10:00:49.558Z,5.13
2017-10-15T10:03:17.102Z,4.77
2017-10-15T10:05:44.658Z,5.30
2017-10-15T10:08:12.194Z,4.87
2017-10-15T10:10:39.756Z,4.57
2017-10-15T10:13:07.322Z,4.70
2017-10-15T10:15:34.895Z,5.03
2017-10-15T10:18:02.438Z,4.80
2017-10-15T10:20:29.994Z,4.97
2017-10-15T10:22:57.526Z,4.90
2017-10-15T10:25:25.082Z,5.10
2017-10-15T10:27:52.606Z,5.53
2017-10-15T10:30:20.179Z,5.00
2017-10-15T10:32:47.710Z,4.97
2017-10-15T10:35:15.242Z,5.47
2017-10-15T10:37:42.807Z,5.37
2017-10-15T10:40:10.422Z,5.43
2017-10-15T10:42:37.943Z,5.10
2017-10-15T10:45:05.482Z,5.83
2017-10-15T10:47:33.813Z,5.50
2017-10-15T10:50:01.330Z,5.67
2017-10-15T10:52:28.906Z,5.60
2017-10-15T10:54:56.439Z,5.60
2017-10-15T10:57:23.962Z,5.30
2017-10-15T10:59:51.526Z,5.27
2017-10-15T11:02:19.090Z,5.37
2017-10-15T11:04:46.668Z,5.13
2017-10-15T11:07:14.204Z,5.90
2017-10-15T11:09:41.739Z,6.23
2017-10-15T11:12:10.065Z,5.30
2017-10-15T11:14:38.359Z,5.97
2017-10-15T11:17:06.690Z,5.23
2017-10-15T11:19:34.210Z,5.50
2017-10-15T11:22:01.739Z,5.83
2017-10-15T11:24:29.300Z,7.27
2017-10-15T11:26:56.825Z,6.20
2017-10-15T11:29:24.410Z,5.60
2017-10-15T11:31:51.953Z,6.27
2017-10-15T11:34:19.491Z,5.73
2017-10-15T11:36:47.051Z,6.20
2017-10-15T11:39:14.595Z,5.87
2017-10-15T11:41:42.154Z,6.07
2017-10-15T11:44:09.727Z,6.03
2017-10-15T11:46:37.260Z,5.93
2017-10-15T11:49:04.815Z,5.53
2017-10-15T11:51:32.379Z,5.60
2017-10-15T11:53:59.904Z,6.27
2017-10-15T11:56:27.470Z,5.33
2017-10-15T11:58:55.024Z,6.60
2017-10-15T12:01:22.614Z,6.70
2017-10-15T12:03:50.918Z,6.33
2017-10-15T12:06:18.455Z,6.63
2017-10-15T12:08:46.038Z,6.47
2017-10-15T12:11:13.578Z,6.83
2017-10-15T12:13:41.180Z,6.70
2017-10-15T12:16:09.517Z,6.40
2017-10-15T12:18:37.094Z,6.90
2017-10-15T12:21:04.661Z,6.43
2017-10-15T12:23:32.206Z,6.83
2017-10-15T12:25:59.776Z,6.70
2017-10-15T12:28:27.306Z,7.20
2017-10-15T12:30:54.834Z,6.13
2017-10-15T12:33:22.403Z,6.40
2017-10-15T12:35:49.950Z,6.90
2017-10-15T12:38:17.548Z,6.37
2017-10-15T12:40:45.105Z,5.67
2017-10-15T12:43:12.769Z,6.57
2017-10-15T12:45:40.344Z,6.30
2017-10-15T12:48:07.892Z,6.87
2017-10-15T12:50:36.217Z,5.90
2017-10-15T12:53:03.770Z,6.80
2017-10-15T12:55:31.297Z,6.63
2017-10-15T12:57:58.867Z,7.17
2017-10-15T13:00:26.398Z,8.20
2017-10-15T13:02:53.954Z,7.77
2017-10-15T13:05:21.527Z,6.40
2017-10-15T13:07:49.822Z,6.53
2017-10-15T13:10:17.350Z,7.13
2017-10-15T13:12:44.907Z,7.30
2017-10-15T13:15:12.433Z,7.37
2017-10-15T13:20:30.957Z,6.10
2017-10-15T13:22:58.525Z,6.07
2017-10-15T13:25:26.078Z,6.47
2017-10-15T13:27:53.612Z,6.33
2017-10-15T13:30:21.183Z,6.77
2017-10-15T13:35:39.338Z,6.80
2017-10-15T13:38:06.860Z,6.73
2017-10-15T13:40:34.429Z,6.40
2017-10-15T13:43:01.962Z,6.83
2017-10-15T13:45:29.498Z,6.73
2017-10-15T13:47:57.079Z,6.77
2017-10-15T13:50:25.370Z,6.70
2017-10-15T13:52:52.936Z,6.83
2017-10-15T13:55:20.495Z,7.60
2017-10-15T13:57:48.016Z,7.93
2017-10-15T14:00:15.590Z,7.90
2017-10-15T14:02:43.138Z,7.40
2017-10-15T14:05:10.707Z,7.63
2017-10-15T14:07:39.070Z,6.80
2017-10-15T14:10:07.363Z,7.33
2017-10-15T14:12:34.935Z,6.87
2017-10-15T14:15:02.498Z,9.80
2017-10-15T14:17:30.027Z,7.87
2017-10-15T14:19:57.586Z,7.20
2017-10-15T14:22:25.179Z,7.10
2017-10-15T14:24:52.707Z,7.50
2017-10-15T14:27:20.234Z,7.53
2017-10-15T14:29:48.571Z,7.43
2017-10-15T14:32:16.146Z,7.50
2017-10-15T14:34:43.686Z,8.77
2017-10-15T14:37:12.027Z,10.10
2017-10-15T14:39:39.553Z,9.33
2017-10-15T14:42:07.110Z,7.90
2017-10-15T14:44:34.639Z,7.80
2017-10-15T14:47:02.208Z,7.60
2017-10-15T14:49:29.780Z,6.63
2017-10-15T14:51:57.320Z,8.30
2017-10-15T14:54:25.614Z,8.10
2017-10-15T14:56:53.172Z,7.63
2017-10-15T14:59:20.698Z,6.77
2017-10-15T15:01:48.315Z,6.80
2017-10-15T15:04:16.615Z,7.67
2017-10-15T15:06:44.151Z,8.77
2017-10-15T15:09:11.715Z,7.90
2017-10-15T15:11:39.282Z,7.10
2017-10-15T15:14:06.800Z,8.27
2017-10-15T15:16:34.366Z,10.13
2017-10-15T15:19:01.945Z,9.10
2017-10-15T15:21:30.238Z,8.20
2017-10-15T15:23:57.770Z,8.40
2017-10-15T15:26:25.346Z,7.40
2017-10-15T15:28:52.870Z,8.43
2017-10-15T15:31:20.402Z,8.93
2017-10-15T15:33:47.957Z,8.07
2017-10-15T15:36:15.518Z,9.80
2017-10-15T15:38:43.115Z,8.87
2017-10-15T15:41:11.422Z,7.97
2017-10-15T15:43:38.961Z,8.90
2017-10-15T15:46:06.542Z,9.00
2017-10-15T15:48:34.986Z,9.57
2017-10-15T15:51:02.514Z,9.10
2017-10-15T15:53:30.109Z,8.10
2017-10-15T15:55:58.423Z,9.50
2017-10-15T15:58:25.972Z,8.70
2017-10-15T16:00:53.536Z,7.80
2017-10-15T16:03:21.074Z,10.00
2017-10-15T16:05:48.609Z,9.87
2017-10-15T16:08:16.191Z,9.57
2017-10-15T16:10:44.504Z,9.80
2017-10-15T16:13:12.079Z,9.87
2017-10-15T16:15:39.638Z,10.43
2017-10-15T16:18:07.938Z,10.23
2017-10-15T16:20:35.517Z,11.43
2017-10-15T16:23:03.090Z,10.03
2017-10-15T16:25:31.382Z,9.53
2017-10-15T16:27:58.962Z,9.33
2017-10-15T16:30:26.497Z,8.73
2017-10-15T16:32:54.029Z,10.33
2017-10-15T16:35:21.606Z,12.67
2017-10-15T16:37:49.139Z,11.73
2017-10-15T16:40:16.722Z,9.83
2017-10-15T16:42:45.031Z,11.13
2017-10-15T16:45:12.602Z,9.47
2017-10-15T16:47:40.182Z,10.20
2017-10-15T16:50:08.479Z,10.60
2017-10-15T16:52:36.013Z,12.20
2017-10-15T16:55:03.585Z,11.80
2017-10-15T16:57:31.122Z,10.27
2017-10-15T16:59:58.714Z,10.07
2017-10-15T17:02:27.023Z,10.30
2017-10-15T17:04:54.573Z,8.30
2017-10-15T17:07:22.146Z,10.53
2017-10-15T17:09:49.710Z,11.80
2017-10-15T17:12:18.086Z,11.07
2017-10-15T17:14:45.617Z,10.63
2017-10-15T17:17:13.925Z,13.00
2017-10-15T17:19:41.511Z,12.33
2017-10-15T17:22:09.050Z,11.17
2017-10-15T17:24:36.583Z,11.90
2017-10-15T17:27:04.160Z,10.77
2017-10-15T17:29:32.466Z,12.23
2017-10-15T17:32:00.054Z,10.40
2017-10-15T17:34:29.324Z,12.60
2017-10-15T17:36:56.866Z,11.17
2017-10-15T17:39:24.470Z,10.67
2017-10-15T17:41:53.077Z,14.47
2017-10-15T17:44:20.795Z,16.60
2017-10-15T17:46:48.380Z,12.17
2017-10-15T17:49:15.938Z,14.20
2017-10-15T17:51:43.544Z,15.70
2017-10-15T17:54:11.132Z,12.00
2017-10-15T17:56:44.464Z,13.40
2017-10-15T17:59:13.005Z,12.03
2017-10-15T18:01:40.546Z,16.00
2017-10-15T18:04:08.871Z,11.87
2017-10-15T18:06:36.922Z,17.13
2017-10-15T18:09:04.455Z,14.33
2017-10-15T18:11:31.987Z,18.57
2017-10-15T18:13:59.566Z,15.30
2017-10-15T18:16:27.861Z,17.40
2017-10-15T18:18:55.393Z,17.27
2017-10-15T18:21:22.990Z,14.97
2017-10-15T18:23:50.619Z,15.53
2017-10-15T18:26:18.187Z,14.87
2017-10-15T18:28:45.747Z,14.07
2017-10-15T18:31:13.278Z,13.80
2017-10-15T18:33:40.854Z,11.87
2017-10-15T18:36:08.390Z,13.17
2017-10-15T18:38:35.919Z,12.97
2017-10-15T18:41:03.485Z,12.17
2017-10-15T18:43:31.843Z,12.20
2017-10-15T18:46:00.178Z,11.00
2017-10-15T18:48:30.632Z,11.70
2017-10-15T18:50:58.227Z,11.00
2017-10-15T18:53:25.818Z,11.97
2017-10-15T18:55:53.374Z,10.97
2017-10-15T18:58:20.924Z,10.00
2017-10-15T19:00:48.498Z,12.30
2017-10-15T19:03:16.800Z,12.20
2017-10-15T19:05:45.171Z,12.27
2017-10-15T19:08:12.718Z,11.60
2017-10-15T19:10:40.784Z,10.60
2017-10-15T19:13:08.382Z,11.73
2017-10-15T19:15:35.954Z,11.47
2017-10-15T19:18:03.524Z,10.80
2017-10-15T19:20:31.251Z,11.10
2017-10-15T19:22:58.779Z,11.83
2017-10-15T19:25:26.354Z,11.10
2017-10-15T19:27:53.928Z,11.50
2017-10-15T19:30:21.510Z,11.40
2017-10-15T19:32:49.040Z,12.70
2017-10-15T19:35:16.583Z,11.57
2017-10-15T19:37:44.162Z,11.20
2017-10-15T19:40:11.703Z,11.43
2017-10-15T19:42:40.067Z,11.70
2017-10-15T19:45:08.406Z,11.27
2017-10-15T19:47:35.936Z,9.73
2017-10-15T19:50:03.496Z,12.13
2017-10-15T19:52:31.041Z,10.30
2017-10-15T19:54:58.632Z,10.37
2017-10-15T19:57:26.179Z,11.73
2017-10-15T19:59:54.489Z,12.60
2017-10-15T20:02:22.068Z,12.20
2017-10-15T20:04:49.654Z,11.90
2017-10-15T20:07:17.182Z,12.73
2017-10-15T20:09:46.613Z,11.63
2017-10-15T20:12:14.175Z,12.27
2017-10-15T20:14:41.743Z,13.20
2017-10-15T20:17:09.327Z,11.83
2017-10-15T20:19:36.914Z,11.97
2017-10-15T20:22:04.523Z,12.80
2017-10-15T20:24:32.138Z,12.67
2017-10-15T20:26:59.696Z,14.53
2017-10-15T20:29:27.246Z,12.17
2017-10-15T20:31:54.810Z,14.43
2017-10-15T20:34:22.375Z,13.90
2017-10-15T20:36:50.726Z,14.63
2017-10-15T20:39:18.283Z,14.13
2017-10-15T20:41:46.582Z,13.63
2017-10-15T20:44:14.146Z,13.30
2017-10-15T20:46:42.520Z,14.10
2017-10-15T20:49:10.051Z,13.90
2017-10-15T20:51:37.612Z,13.37
2017-10-15T20:54:05.210Z,13.10
2017-10-15T20:56:32.745Z,14.93
2017-10-15T20:59:02.515Z,13.20
2017-10-15T21:01:30.055Z,13.80
2017-10-15T21:03:57.820Z,14.17
2017-10-15T21:06:26.151Z,13.77
2017-10-15T21:08:53.766Z,14.53
2017-10-15T21:11:21.354Z,12.63
2017-10-15T21:13:48.918Z,14.40
2017-10-15T21:16:17.294Z,13.30
2017-10-15T21:18:44.858Z,13.27
2017-10-15T21:21:12.475Z,14.20
2017-10-15T21:23:40.820Z,15.00
2017-10-15T21:26:08.355Z,14.27
2017-10-15T21:28:35.907Z,14.20
2017-10-15T21:31:03.485Z,13.50
2017-10-15T21:33:31.018Z,13.43
2017-10-15T21:35:58.572Z,12.80
2017-10-15T21:38:26.165Z,14.50
2017-10-15T21:40:53.698Z,13.10
2017-10-15T21:43:21.245Z,13.43
2017-10-15T21:45:48.838Z,13.50
2017-10-15T21:48:17.136Z,13.73
2017-10-15T21:50:44.682Z,12.73
2017-10-15T21:53:12.256Z,13.27
2017-10-15T21:55:39.803Z,12.50
2017-10-15T21:58:07.414Z,12.17
2017-10-15T22:00:34.971Z,13.23
2017-10-15T22:03:02.514Z,12.70
2017-10-15T22:05:30.101Z,11.73
2017-10-15T22:07:58.403Z,11.37
2017-10-15T22:10:25.947Z,11.93
2017-10-15T22:12:53.515Z,11.53
2017-10-15T22:15:21.104Z,13.00
2017-10-15T22:17:48.699Z,11.57
2017-10-15T22:20:16.243Z,11.23
2017-10-15T22:25:35.329Z,11.23
2017-10-15T22:28:03.653Z,11.80
2017-10-15T22:30:31.170Z,11.97
2017-10-15T22:32:58.743Z,10.60
2017-10-15T22:35:26.269Z,11.83
2017-10-15T22:37:53.797Z,11.70
2017-10-15T22:40:21.366Z,10.87
2017-10-15T22:42:48.889Z,12.37
2017-10-15T22:45:16.462Z,10.10
2017-10-15T22:47:43.986Z,10.73
2017-10-15T22:50:11.524Z,10.60
2017-10-15T22:52:39.094Z,11.63
2017-10-15T22:55:07.386Z,11.27
2017-10-15T22:57:34.949Z,10.63
2017-10-15T23:00:03.282Z,10.40
2017-10-15T23:02:30.837Z,11.43
2017-10-15T23:04:58.349Z,12.30
2017-10-15T23:07:26.731Z,11.83
2017-10-15T23:09:54.254Z,11.17
2017-10-15T23:12:21.821Z,10.90
2017-10-15T23:14:49.345Z,12.87
2017-10-15T23:17:16.883Z,12.10
2017-10-15T23:19:44.441Z,11.17
2017-10-15T23:22:11.965Z,12.67
2017-10-15T23:24:39.495Z,11.50
2017-10-15T23:27:07.068Z,11.70
2017-10-15T23:29:34.592Z,12.20
2017-10-15T23:32:02.150Z,11.53
2017-10-15T23:34:30.451Z,11.70
2017-10-15T23:36:58.006Z,11.83
2017-10-15T23:39:26.338Z,11.53
2017-10-15T23:41:53.869Z,10.70
2017-10-15T23:44:22.193Z,10.77
2017-10-15T23:46:49.717Z,11.17
2017-10-15T23:49:18.009Z,11.33
2017-10-15T23:51:45.570Z,11.27
2017-10-15T23:54:13.099Z,12.90
2017-10-15T23:56:40.665Z,12.33
2017-10-15T23:59:08.189Z,12.37
